sensor_id;sensor_type;location;lat;lon;timestamp;P1;durP1;ratioP1;P2;durP2;ratioP2
11807;SDS011;5961;42.640;23.380;2023-04-09T00:00:17;16.83;;;13.17;;
11807;SDS011;5961;42.640;23.380;2023-04-09T00:02:44;16.03;;;12.37;;
11807;SDS011;5961;42.640;23.380;2023-04-09T00:05:12;17.00;;;12.57;;
11807;SDS011;5961;42.640;23.380;2023-04-09T00:07:39;16.30;;;12.33;;
11807;SDS011;5961;42.640;23.380;2023-04-09T00:10:06;16.57;;;12.03;;
11807;SDS011;5961;42.640;23.380;2023-04-09T00:12:34;13.80;;;11.23;;
11807;SDS011;5961;42.640;23.380;2023-04-09T00:15:01;12.83;;;10.33;;
11807;SDS011;5961;42.640;23.380;2023-04-09T00:17:28;12.90;;;10.40;;
11807;SDS011;5961;42.640;23.380;2023-04-09T00:19:55;13.20;;;10.53;;
11807;SDS011;5961;42.640;23.380;2023-04-09T00:22:23;11.30;;;9.67;;
11807;SDS011;5961;42.640;23.380;2023-04-09T00:24:50;12.00;;;10.20;;
11807;SDS011;5961;42.640;23.380;2023-04-09T00:27:17;11.33;;;9.47;;
11807;SDS011;5961;42.640;23.380;2023-04-09T00:29:43;11.63;;;9.33;;
11807;SDS011;5961;42.640;23.380;2023-04-09T00:32:11;10.93;;;9.00;;
11807;SDS011;5961;42.640;23.380;2023-04-09T00:34:38;11.70;;;8.97;;
11807;SDS011;5961;42.640;23.380;2023-04-09T00:37:05;10.30;;;8.73;;
11807;SDS011;5961;42.640;23.380;2023-04-09T00:39:33;10.13;;;8.87;;
11807;SDS011;5961;42.640;23.380;2023-04-09T00:42:00;9.53;;;8.50;;
11807;SDS011;5961;42.640;23.380;2023-04-09T00:44:27;9.53;;;8.30;;
11807;SDS011;5961;42.640;23.380;2023-04-09T00:46:54;9.27;;;8.27;;
11807;SDS011;5961;42.640;23.380;2023-04-09T00:49:21;10.07;;;8.27;;
11807;SDS011;5961;42.640;23.380;2023-04-09T00:51:48;12.97;;;9.33;;
11807;SDS011;5961;42.640;23.380;2023-04-09T00:54:15;10.77;;;8.37;;
11807;SDS011;5961;42.640;23.380;2023-04-09T00:56:43;10.67;;;9.03;;
11807;SDS011;5961;42.640;23.380;2023-04-09T00:59:11;11.77;;;8.63;;
11807;SDS011;5961;42.640;23.380;2023-04-09T01:01:38;11.07;;;9.00;;
11807;SDS011;5961;42.640;23.380;2023-04-09T01:04:04;10.17;;;9.00;;
11807;SDS011;5961;42.640;23.380;2023-04-09T01:06:32;10.63;;;8.93;;
11807;SDS011;5961;42.640;23.380;2023-04-09T01:09:08;13.17;;;9.40;;
11807;SDS011;5961;42.640;23.380;2023-04-09T01:11:48;12.33;;;9.77;;
11807;SDS011;5961;42.640;23.380;2023-04-09T01:14:23;12.70;;;10.03;;
11807;SDS011;5961;42.640;23.380;2023-04-09T01:16:56;13.23;;;9.80;;
11807;SDS011;5961;42.640;23.380;2023-04-09T01:19:33;11.70;;;10.20;;
11807;SDS011;5961;42.640;23.380;2023-04-09T01:22:09;12.37;;;10.30;;
11807;SDS011;5961;42.640;23.380;2023-04-09T01:24:50;12.60;;;10.03;;
11807;SDS011;5961;42.640;23.380;2023-04-09T01:27:28;11.20;;;9.73;;
11807;SDS011;5961;42.640;23.380;2023-04-09T01:30:04;13.57;;;10.10;;
11807;SDS011;5961;42.640;23.380;2023-04-09T01:32:32;12.50;;;9.63;;
11807;SDS011;5961;42.640;23.380;2023-04-09T01:35:01;12.37;;;9.63;;
11807;SDS011;5961;42.640;23.380;2023-04-09T01:37:29;13.10;;;9.60;;
11807;SDS011;5961;42.640;23.380;2023-04-09T01:39:57;13.07;;;9.97;;
11807;SDS011;5961;42.640;23.380;2023-04-09T01:42:25;13.43;;;9.57;;
11807;SDS011;5961;42.640;23.380;2023-04-09T01:44:53;12.17;;;9.67;;
11807;SDS011;5961;42.640;23.380;2023-04-09T01:47:22;11.73;;;9.50;;
11807;SDS011;5961;42.640;23.380;2023-04-09T01:49:49;11.17;;;9.27;;
11807;SDS011;5961;42.640;23.380;2023-04-09T01:52:19;11.47;;;9.60;;
11807;SDS011;5961;42.640;23.380;2023-04-09T01:54:46;13.10;;;9.57;;
11807;SDS011;5961;42.640;23.380;2023-04-09T01:57:12;12.57;;;9.37;;
11807;SDS011;5961;42.640;23.380;2023-04-09T01:59:39;10.40;;;8.90;;
11807;SDS011;5961;42.640;23.380;2023-04-09T02:02:07;12.03;;;9.47;;
11807;SDS011;5961;42.640;23.380;2023-04-09T02:04:39;12.23;;;9.83;;
11807;SDS011;5961;42.640;23.380;2023-04-09T02:07:09;10.97;;;9.00;;
11807;SDS011;5961;42.640;23.380;2023-04-09T02:09:40;12.83;;;9.77;;
11807;SDS011;5961;42.640;23.380;2023-04-09T02:12:11;10.83;;;8.87;;
11807;SDS011;5961;42.640;23.380;2023-04-09T02:14:41;11.07;;;8.77;;
11807;SDS011;5961;42.640;23.380;2023-04-09T02:17:11;12.40;;;9.30;;
11807;SDS011;5961;42.640;23.380;2023-04-09T02:19:40;12.27;;;9.67;;
11807;SDS011;5961;42.640;23.380;2023-04-09T02:22:07;11.53;;;9.43;;
11807;SDS011;5961;42.640;23.380;2023-04-09T02:24:34;14.50;;;10.37;;
11807;SDS011;5961;42.640;23.380;2023-04-09T02:27:01;14.03;;;10.67;;
11807;SDS011;5961;42.640;23.380;2023-04-09T02:29:29;13.47;;;10.33;;
11807;SDS011;5961;42.640;23.380;2023-04-09T02:31:55;13.93;;;11.07;;
11807;SDS011;5961;42.640;23.380;2023-04-09T02:34:22;14.33;;;11.10;;
11807;SDS011;5961;42.640;23.380;2023-04-09T02:36:50;15.70;;;11.10;;
11807;SDS011;5961;42.640;23.380;2023-04-09T02:39:17;14.77;;;11.60;;
11807;SDS011;5961;42.640;23.380;2023-04-09T02:41:44;13.97;;;11.30;;
11807;SDS011;5961;42.640;23.380;2023-04-09T02:44:10;13.77;;;11.37;;
11807;SDS011;5961;42.640;23.380;2023-04-09T02:46:37;16.33;;;11.13;;
11807;SDS011;5961;42.640;23.380;2023-04-09T02:49:04;14.17;;;11.23;;
11807;SDS011;5961;42.640;23.380;2023-04-09T02:51:33;15.50;;;10.87;;
11807;SDS011;5961;42.640;23.380;2023-04-09T02:54:01;14.57;;;11.47;;
11807;SDS011;5961;42.640;23.380;2023-04-09T02:56:28;14.97;;;11.20;;
11807;SDS011;5961;42.640;23.380;2023-04-09T02:58:55;13.80;;;11.77;;
11807;SDS011;5961;42.640;23.380;2023-04-09T03:01:21;15.73;;;11.73;;
11807;SDS011;5961;42.640;23.380;2023-04-09T03:03:48;14.50;;;11.47;;
11807;SDS011;5961;42.640;23.380;2023-04-09T03:06:15;15.40;;;11.30;;
11807;SDS011;5961;42.640;23.380;2023-04-09T03:08:42;13.87;;;11.73;;
11807;SDS011;5961;42.640;23.380;2023-04-09T03:11:10;14.33;;;11.20;;
11807;SDS011;5961;42.640;23.380;2023-04-09T03:13:37;14.10;;;11.77;;
11807;SDS011;5961;42.640;23.380;2023-04-09T03:16:04;13.53;;;11.30;;
11807;SDS011;5961;42.640;23.380;2023-04-09T03:18:31;14.07;;;11.43;;
11807;SDS011;5961;42.640;23.380;2023-04-09T03:20:58;13.80;;;11.43;;
11807;SDS011;5961;42.640;23.380;2023-04-09T03:23:25;15.57;;;12.00;;
11807;SDS011;5961;42.640;23.380;2023-04-09T03:25:58;13.83;;;11.50;;
11807;SDS011;5961;42.640;23.380;2023-04-09T03:28:27;15.47;;;11.80;;
11807;SDS011;5961;42.640;23.380;2023-04-09T03:30:54;16.53;;;12.10;;
11807;SDS011;5961;42.640;23.380;2023-04-09T03:33:22;14.93;;;12.47;;
11807;SDS011;5961;42.640;23.380;2023-04-09T03:35:48;14.77;;;11.37;;
11807;SDS011;5961;42.640;23.380;2023-04-09T03:38:15;14.40;;;11.30;;
11807;SDS011;5961;42.640;23.380;2023-04-09T03:40:42;14.77;;;11.97;;
11807;SDS011;5961;42.640;23.380;2023-04-09T03:43:09;18.80;;;11.77;;
11807;SDS011;5961;42.640;23.380;2023-04-09T03:45:37;17.27;;;12.57;;
11807;SDS011;5961;42.640;23.380;2023-04-09T03:48:03;16.73;;;12.97;;
11807;SDS011;5961;42.640;23.380;2023-04-09T03:50:30;16.20;;;12.40;;
11807;SDS011;5961;42.640;23.380;2023-04-09T03:52:57;14.07;;;11.73;;
11807;SDS011;5961;42.640;23.380;2023-04-09T03:55:24;16.83;;;12.50;;
11807;SDS011;5961;42.640;23.380;2023-04-09T03:57:51;13.80;;;11.47;;
11807;SDS011;5961;42.640;23.380;2023-04-09T04:00:17;13.67;;;11.13;;
11807;SDS011;5961;42.640;23.380;2023-04-09T04:02:45;16.47;;;11.97;;
11807;SDS011;5961;42.640;23.380;2023-04-09T04:05:12;15.43;;;12.37;;
11807;SDS011;5961;42.640;23.380;2023-04-09T04:07:39;17.80;;;12.50;;
11807;SDS011;5961;42.640;23.380;2023-04-09T04:10:08;16.30;;;12.20;;
11807;SDS011;5961;42.640;23.380;2023-04-09T04:12:35;16.37;;;12.77;;
11807;SDS011;5961;42.640;23.380;2023-04-09T04:15:02;19.27;;;12.23;;
11807;SDS011;5961;42.640;23.380;2023-04-09T04:17:29;17.80;;;12.73;;
11807;SDS011;5961;42.640;23.380;2023-04-09T04:19:57;15.27;;;12.37;;
11807;SDS011;5961;42.640;23.380;2023-04-09T04:22:24;15.93;;;12.77;;
11807;SDS011;5961;42.640;23.380;2023-04-09T04:24:51;15.43;;;12.30;;
11807;SDS011;5961;42.640;23.380;2023-04-09T04:27:17;16.27;;;12.57;;
11807;SDS011;5961;42.640;23.380;2023-04-09T04:29:44;17.10;;;13.13;;
11807;SDS011;5961;42.640;23.380;2023-04-09T04:32:11;18.33;;;12.43;;
11807;SDS011;5961;42.640;23.380;2023-04-09T04:34:37;18.47;;;13.57;;
11807;SDS011;5961;42.640;23.380;2023-04-09T04:37:05;18.07;;;14.07;;
11807;SDS011;5961;42.640;23.380;2023-04-09T04:39:32;19.00;;;13.73;;
11807;SDS011;5961;42.640;23.380;2023-04-09T04:41:59;17.10;;;13.43;;
11807;SDS011;5961;42.640;23.380;2023-04-09T04:44:26;19.40;;;13.97;;
11807;SDS011;5961;42.640;23.380;2023-04-09T04:46:52;22.20;;;14.60;;
11807;SDS011;5961;42.640;23.380;2023-04-09T04:49:19;21.47;;;15.27;;
11807;SDS011;5961;42.640;23.380;2023-04-09T04:51:46;18.67;;;14.17;;
11807;SDS011;5961;42.640;23.380;2023-04-09T04:54:14;20.57;;;15.07;;
11807;SDS011;5961;42.640;23.380;2023-04-09T04:56:41;20.33;;;14.67;;
11807;SDS011;5961;42.640;23.380;2023-04-09T04:59:07;20.13;;;14.40;;
11807;SDS011;5961;42.640;23.380;2023-04-09T05:01:34;20.87;;;14.83;;
11807;SDS011;5961;42.640;23.380;2023-04-09T05:04:01;18.90;;;14.00;;
11807;SDS011;5961;42.640;23.380;2023-04-09T05:06:28;20.07;;;15.10;;
11807;SDS011;5961;42.640;23.380;2023-04-09T05:08:55;19.37;;;14.60;;
11807;SDS011;5961;42.640;23.380;2023-04-09T05:11:24;23.53;;;15.33;;
11807;SDS011;5961;42.640;23.380;2023-04-09T05:13:50;21.97;;;15.57;;
11807;SDS011;5961;42.640;23.380;2023-04-09T05:16:17;21.37;;;15.67;;
11807;SDS011;5961;42.640;23.380;2023-04-09T05:18:46;22.03;;;15.73;;
11807;SDS011;5961;42.640;23.380;2023-04-09T05:21:13;21.40;;;15.50;;
11807;SDS011;5961;42.640;23.380;2023-04-09T05:23:39;21.40;;;15.17;;
11807;SDS011;5961;42.640;23.380;2023-04-09T05:26:06;20.57;;;15.50;;
11807;SDS011;5961;42.640;23.380;2023-04-09T05:28:34;23.70;;;16.13;;
11807;SDS011;5961;42.640;23.380;2023-04-09T05:31:02;22.00;;;15.77;;
11807;SDS011;5961;42.640;23.380;2023-04-09T05:33:28;21.33;;;15.10;;
11807;SDS011;5961;42.640;23.380;2023-04-09T05:35:59;20.53;;;15.10;;
11807;SDS011;5961;42.640;23.380;2023-04-09T05:38:26;21.50;;;15.10;;
11807;SDS011;5961;42.640;23.380;2023-04-09T05:40:52;21.13;;;15.10;;
11807;SDS011;5961;42.640;23.380;2023-04-09T05:43:19;22.10;;;16.00;;
11807;SDS011;5961;42.640;23.380;2023-04-09T05:45:47;24.17;;;16.27;;
11807;SDS011;5961;42.640;23.380;2023-04-09T05:48:14;25.63;;;16.53;;
11807;SDS011;5961;42.640;23.380;2023-04-09T05:50:47;22.70;;;15.63;;
11807;SDS011;5961;42.640;23.380;2023-04-09T05:53:14;22.17;;;15.63;;
11807;SDS011;5961;42.640;23.380;2023-04-09T05:55:41;21.10;;;14.80;;
11807;SDS011;5961;42.640;23.380;2023-04-09T05:58:08;20.20;;;14.70;;
11807;SDS011;5961;42.640;23.380;2023-04-09T06:00:34;21.27;;;14.60;;
11807;SDS011;5961;42.640;23.380;2023-04-09T06:03:03;19.30;;;13.17;;
11807;SDS011;5961;42.640;23.380;2023-04-09T06:05:29;17.83;;;13.03;;
11807;SDS011;5961;42.640;23.380;2023-04-09T06:07:56;20.33;;;13.93;;
11807;SDS011;5961;42.640;23.380;2023-04-09T06:10:23;21.20;;;13.57;;
11807;SDS011;5961;42.640;23.380;2023-04-09T06:12:50;19.97;;;14.03;;
11807;SDS011;5961;42.640;23.380;2023-04-09T06:15:16;21.93;;;14.53;;
11807;SDS011;5961;42.640;23.380;2023-04-09T06:17:43;17.90;;;13.13;;
11807;SDS011;5961;42.640;23.380;2023-04-09T06:20:12;21.10;;;13.77;;
11807;SDS011;5961;42.640;23.380;2023-04-09T06:22:38;18.23;;;13.37;;
11807;SDS011;5961;42.640;23.380;2023-04-09T06:25:05;20.13;;;13.47;;
11807;SDS011;5961;42.640;23.380;2023-04-09T06:27:32;18.67;;;13.63;;
11807;SDS011;5961;42.640;23.380;2023-04-09T06:29:59;17.27;;;12.50;;
11807;SDS011;5961;42.640;23.380;2023-04-09T06:32:26;19.23;;;13.27;;
11807;SDS011;5961;42.640;23.380;2023-04-09T06:34:52;20.53;;;13.70;;
11807;SDS011;5961;42.640;23.380;2023-04-09T06:37:21;24.93;;;17.83;;
11807;SDS011;5961;42.640;23.380;2023-04-09T06:39:47;22.03;;;14.17;;
11807;SDS011;5961;42.640;23.380;2023-04-09T06:42:14;19.63;;;13.07;;
11807;SDS011;5961;42.640;23.380;2023-04-09T06:44:41;17.20;;;11.33;;
11807;SDS011;5961;42.640;23.380;2023-04-09T06:47:07;13.20;;;10.60;;
11807;SDS011;5961;42.640;23.380;2023-04-09T06:49:34;15.10;;;11.27;;
11807;SDS011;5961;42.640;23.380;2023-04-09T06:52:02;13.83;;;10.80;;
11807;SDS011;5961;42.640;23.380;2023-04-09T06:54:30;11.67;;;9.37;;
11807;SDS011;5961;42.640;23.380;2023-04-09T06:56:57;11.90;;;9.50;;
11807;SDS011;5961;42.640;23.380;2023-04-09T06:59:23;11.80;;;9.07;;
11807;SDS011;5961;42.640;23.380;2023-04-09T07:01:50;13.27;;;9.67;;
11807;SDS011;5961;42.640;23.380;2023-04-09T07:04:17;11.93;;;9.23;;
11807;SDS011;5961;42.640;23.380;2023-04-09T07:06:44;13.23;;;10.33;;
11807;SDS011;5961;42.640;23.380;2023-04-09T07:09:10;15.17;;;10.07;;
11807;SDS011;5961;42.640;23.380;2023-04-09T07:11:39;11.13;;;8.83;;
11807;SDS011;5961;42.640;23.380;2023-04-09T07:14:05;13.00;;;9.87;;
11807;SDS011;5961;42.640;23.380;2023-04-09T07:16:32;12.70;;;9.37;;
11807;SDS011;5961;42.640;23.380;2023-04-09T07:18:59;10.03;;;8.77;;
11807;SDS011;5961;42.640;23.380;2023-04-09T07:21:25;12.90;;;9.57;;
11807;SDS011;5961;42.640;23.380;2023-04-09T07:23:52;14.93;;;10.30;;
11807;SDS011;5961;42.640;23.380;2023-04-09T07:26:20;12.60;;;10.80;;
11807;SDS011;5961;42.640;23.380;2023-04-09T07:28:48;12.57;;;9.50;;
11807;SDS011;5961;42.640;23.380;2023-04-09T07:31:15;14.10;;;9.27;;
11807;SDS011;5961;42.640;23.380;2023-04-09T07:33:42;14.23;;;10.47;;
11807;SDS011;5961;42.640;23.380;2023-04-09T07:36:09;10.63;;;8.60;;
11807;SDS011;5961;42.640;23.380;2023-04-09T07:38:35;13.47;;;9.83;;
11807;SDS011;5961;42.640;23.380;2023-04-09T07:41:02;13.90;;;10.43;;
11807;SDS011;5961;42.640;23.380;2023-04-09T07:43:29;13.10;;;10.37;;
11807;SDS011;5961;42.640;23.380;2023-04-09T07:45:57;13.33;;;11.07;;
11807;SDS011;5961;42.640;23.380;2023-04-09T07:48:24;14.23;;;11.13;;
11807;SDS011;5961;42.640;23.380;2023-04-09T07:50:52;19.60;;;11.90;;
11807;SDS011;5961;42.640;23.380;2023-04-09T07:53:18;14.50;;;11.73;;
11807;SDS011;5961;42.640;23.380;2023-04-09T07:55:45;12.60;;;10.33;;
11807;SDS011;5961;42.640;23.380;2023-04-09T07:58:12;13.27;;;9.40;;
11807;SDS011;5961;42.640;23.380;2023-04-09T08:00:39;13.67;;;10.50;;
11807;SDS011;5961;42.640;23.380;2023-04-09T08:03:07;14.67;;;9.37;;
11807;SDS011;5961;42.640;23.380;2023-04-09T08:05:33;17.23;;;10.17;;
11807;SDS011;5961;42.640;23.380;2023-04-09T08:08:00;16.20;;;10.13;;
11807;SDS011;5961;42.640;23.380;2023-04-09T08:10:27;13.73;;;10.13;;
11807;SDS011;5961;42.640;23.380;2023-04-09T08:12:54;13.27;;;9.87;;
11807;SDS011;5961;42.640;23.380;2023-04-09T08:15:21;13.07;;;9.93;;
11807;SDS011;5961;42.640;23.380;2023-04-09T08:17:47;12.40;;;10.20;;
11807;SDS011;5961;42.640;23.380;2023-04-09T08:20:16;13.77;;;10.37;;
11807;SDS011;5961;42.640;23.380;2023-04-09T08:22:42;16.27;;;11.37;;
11807;SDS011;5961;42.640;23.380;2023-04-09T08:25:09;16.30;;;10.03;;
11807;SDS011;5961;42.640;23.380;2023-04-09T08:27:36;13.00;;;10.20;;
11807;SDS011;5961;42.640;23.380;2023-04-09T08:30:04;17.63;;;10.10;;
11807;SDS011;5961;42.640;23.380;2023-04-09T08:32:31;15.77;;;10.13;;
11807;SDS011;5961;42.640;23.380;2023-04-09T08:34:58;14.23;;;10.67;;
11807;SDS011;5961;42.640;23.380;2023-04-09T08:37:26;13.37;;;10.50;;
11807;SDS011;5961;42.640;23.380;2023-04-09T08:39:53;14.43;;;11.10;;
11807;SDS011;5961;42.640;23.380;2023-04-09T08:42:20;17.87;;;11.43;;
11807;SDS011;5961;42.640;23.380;2023-04-09T08:44:48;18.57;;;12.60;;
11807;SDS011;5961;42.640;23.380;2023-04-09T08:47:15;14.67;;;11.03;;
11807;SDS011;5961;42.640;23.380;2023-04-09T08:49:43;17.23;;;11.90;;
11807;SDS011;5961;42.640;23.380;2023-04-09T08:52:10;16.30;;;11.80;;
11807;SDS011;5961;42.640;23.380;2023-04-09T08:54:38;15.27;;;11.30;;
11807;SDS011;5961;42.640;23.380;2023-04-09T08:57:05;15.80;;;10.93;;
11807;SDS011;5961;42.640;23.380;2023-04-09T08:59:31;12.63;;;10.23;;
11807;SDS011;5961;42.640;23.380;2023-04-09T09:02:07;15.60;;;10.77;;
11807;SDS011;5961;42.640;23.380;2023-04-09T09:04:43;15.47;;;10.90;;
11807;SDS011;5961;42.640;23.380;2023-04-09T09:07:11;19.17;;;11.70;;
11807;SDS011;5961;42.640;23.380;2023-04-09T09:09:52;14.17;;;11.43;;
11807;SDS011;5961;42.640;23.380;2023-04-09T09:12:33;15.10;;;11.33;;
11807;SDS011;5961;42.640;23.380;2023-04-09T09:15:03;14.77;;;10.93;;
11807;SDS011;5961;42.640;23.380;2023-04-09T09:17:31;13.67;;;10.67;;
11807;SDS011;5961;42.640;23.380;2023-04-09T09:19:58;12.90;;;9.77;;
11807;SDS011;5961;42.640;23.380;2023-04-09T09:22:25;14.80;;;9.53;;
11807;SDS011;5961;42.640;23.380;2023-04-09T09:24:53;12.20;;;9.93;;
11807;SDS011;5961;42.640;23.380;2023-04-09T09:27:31;12.97;;;9.70;;
11807;SDS011;5961;42.640;23.380;2023-04-09T09:30:00;12.43;;;9.40;;
11807;SDS011;5961;42.640;23.380;2023-04-09T09:32:28;10.93;;;8.87;;
11807;SDS011;5961;42.640;23.380;2023-04-09T09:35:02;10.70;;;9.20;;
11807;SDS011;5961;42.640;23.380;2023-04-09T09:37:30;11.50;;;8.70;;
11807;SDS011;5961;42.640;23.380;2023-04-09T09:39:58;11.27;;;8.70;;
11807;SDS011;5961;42.640;23.380;2023-04-09T09:42:26;12.10;;;8.50;;
11807;SDS011;5961;42.640;23.380;2023-04-09T09:44:53;10.03;;;8.33;;
11807;SDS011;5961;42.640;23.380;2023-04-09T09:47:20;10.57;;;7.80;;
11807;SDS011;5961;42.640;23.380;2023-04-09T09:49:49;12.10;;;9.23;;
11807;SDS011;5961;42.640;23.380;2023-04-09T09:52:16;10.13;;;8.77;;
11807;SDS011;5961;42.640;23.380;2023-04-09T09:54:47;9.07;;;8.00;;
11807;SDS011;5961;42.640;23.380;2023-04-09T09:57:19;12.30;;;8.47;;
11807;SDS011;5961;42.640;23.380;2023-04-09T09:59:49;8.53;;;7.33;;
11807;SDS011;5961;42.640;23.380;2023-04-09T10:02:19;9.10;;;7.80;;
11807;SDS011;5961;42.640;23.380;2023-04-09T10:04:48;11.50;;;8.37;;
11807;SDS011;5961;42.640;23.380;2023-04-09T10:07:16;12.43;;;8.80;;
11807;SDS011;5961;42.640;23.380;2023-04-09T10:09:47;10.80;;;8.03;;
11807;SDS011;5961;42.640;23.380;2023-04-09T10:12:14;11.70;;;8.60;;
11807;SDS011;5961;42.640;23.380;2023-04-09T10:14:44;12.33;;;9.33;;
11807;SDS011;5961;42.640;23.380;2023-04-09T10:17:11;11.57;;;9.40;;
11807;SDS011;5961;42.640;23.380;2023-04-09T10:19:39;10.57;;;9.20;;
11807;SDS011;5961;42.640;23.380;2023-04-09T10:22:10;8.93;;;7.80;;
11807;SDS011;5961;42.640;23.380;2023-04-09T10:24:39;10.27;;;8.43;;
11807;SDS011;5961;42.640;23.380;2023-04-09T10:27:09;7.60;;;6.57;;
11807;SDS011;5961;42.640;23.380;2023-04-09T10:29:41;9.77;;;7.93;;
11807;SDS011;5961;42.640;23.380;2023-04-09T10:32:10;10.80;;;8.73;;
11807;SDS011;5961;42.640;23.380;2023-04-09T10:34:39;9.30;;;8.10;;
11807;SDS011;5961;42.640;23.380;2023-04-09T10:37:07;11.00;;;8.70;;
11807;SDS011;5961;42.640;23.380;2023-04-09T10:39:38;11.17;;;9.20;;
11807;SDS011;5961;42.640;23.380;2023-04-09T10:42:07;11.57;;;8.47;;
11807;SDS011;5961;42.640;23.380;2023-04-09T10:44:38;9.60;;;8.07;;
11807;SDS011;5961;42.640;23.380;2023-04-09T10:47:07;9.87;;;8.73;;
11807;SDS011;5961;42.640;23.380;2023-04-09T10:49:36;16.40;;;12.33;;
11807;SDS011;5961;42.640;23.380;2023-04-09T10:52:04;11.13;;;9.83;;
11807;SDS011;5961;42.640;23.380;2023-04-09T10:54:36;11.33;;;9.20;;
11807;SDS011;5961;42.640;23.380;2023-04-09T10:57:10;12.03;;;8.97;;
11807;SDS011;5961;42.640;23.380;2023-04-09T10:59:42;11.27;;;9.23;;
11807;SDS011;5961;42.640;23.380;2023-04-09T11:02:19;8.87;;;7.83;;
11807;SDS011;5961;42.640;23.380;2023-04-09T11:05:05;10.00;;;8.80;;
11807;SDS011;5961;42.640;23.380;2023-04-09T11:07:44;10.70;;;8.63;;
11807;SDS011;5961;42.640;23.380;2023-04-09T11:10:14;9.87;;;8.70;;
11807;SDS011;5961;42.640;23.380;2023-04-09T11:12:41;9.80;;;7.97;;
11807;SDS011;5961;42.640;23.380;2023-04-09T11:15:14;9.77;;;7.80;;
11807;SDS011;5961;42.640;23.380;2023-04-09T11:17:42;8.00;;;7.20;;
11807;SDS011;5961;42.640;23.380;2023-04-09T11:20:11;9.70;;;7.97;;
11807;SDS011;5961;42.640;23.380;2023-04-09T11:22:38;10.10;;;8.90;;
11807;SDS011;5961;42.640;23.380;2023-04-09T11:25:05;10.93;;;9.83;;
11807;SDS011;5961;42.640;23.380;2023-04-09T11:27:35;10.10;;;8.70;;
11807;SDS011;5961;42.640;23.380;2023-04-09T11:30:03;12.87;;;11.03;;
11807;SDS011;5961;42.640;23.380;2023-04-09T11:32:30;9.97;;;8.73;;
11807;SDS011;5961;42.640;23.380;2023-04-09T11:34:58;8.93;;;7.77;;
11807;SDS011;5961;42.640;23.380;2023-04-09T11:37:26;7.47;;;6.47;;
11807;SDS011;5961;42.640;23.380;2023-04-09T11:39:53;9.43;;;6.53;;
11807;SDS011;5961;42.640;23.380;2023-04-09T11:42:21;7.80;;;6.57;;
11807;SDS011;5961;42.640;23.380;2023-04-09T11:44:49;8.70;;;6.47;;
11807;SDS011;5961;42.640;23.380;2023-04-09T11:47:17;6.20;;;5.60;;
11807;SDS011;5961;42.640;23.380;2023-04-09T11:49:46;7.97;;;6.97;;
11807;SDS011;5961;42.640;23.380;2023-04-09T11:52:13;8.53;;;7.63;;
11807;SDS011;5961;42.640;23.380;2023-04-09T11:54:41;8.33;;;7.33;;
11807;SDS011;5961;42.640;23.380;2023-04-09T11:57:13;7.40;;;6.63;;
11807;SDS011;5961;42.640;23.380;2023-04-09T11:59:40;6.17;;;5.57;;
11807;SDS011;5961;42.640;23.380;2023-04-09T12:02:07;7.23;;;5.87;;
11807;SDS011;5961;42.640;23.380;2023-04-09T12:04:34;7.20;;;5.90;;
11807;SDS011;5961;42.640;23.380;2023-04-09T12:07:00;6.30;;;5.70;;
11807;SDS011;5961;42.640;23.380;2023-04-09T12:09:27;6.70;;;6.00;;
11807;SDS011;5961;42.640;23.380;2023-04-09T12:11:55;5.97;;;5.37;;
11807;SDS011;5961;42.640;23.380;2023-04-09T12:14:26;6.37;;;5.63;;
11807;SDS011;5961;42.640;23.380;2023-04-09T12:16:53;6.17;;;5.57;;
11807;SDS011;5961;42.640;23.380;2023-04-09T12:19:23;6.70;;;6.10;;
11807;SDS011;5961;42.640;23.380;2023-04-09T12:21:52;6.10;;;5.50;;
11807;SDS011;5961;42.640;23.380;2023-04-09T12:24:21;6.17;;;5.57;;
11807;SDS011;5961;42.640;23.380;2023-04-09T12:26:49;5.70;;;5.20;;
11807;SDS011;5961;42.640;23.380;2023-04-09T12:29:18;6.20;;;5.27;;
11807;SDS011;5961;42.640;23.380;2023-04-09T12:31:46;6.03;;;5.03;;
11807;SDS011;5961;42.640;23.380;2023-04-09T12:34:12;6.67;;;5.63;;
11807;SDS011;5961;42.640;23.380;2023-04-09T12:36:39;6.30;;;5.67;;
11807;SDS011;5961;42.640;23.380;2023-04-09T12:39:07;7.13;;;6.40;;
11807;SDS011;5961;42.640;23.380;2023-04-09T12:41:34;6.20;;;5.60;;
11807;SDS011;5961;42.640;23.380;2023-04-09T12:44:00;6.60;;;5.47;;
11807;SDS011;5961;42.640;23.380;2023-04-09T12:46:29;6.10;;;5.27;;
11807;SDS011;5961;42.640;23.380;2023-04-09T12:48:56;8.60;;;5.17;;
11807;SDS011;5961;42.640;23.380;2023-04-09T12:51:23;6.40;;;5.30;;
11807;SDS011;5961;42.640;23.380;2023-04-09T12:53:50;6.87;;;5.97;;
11807;SDS011;5961;42.640;23.380;2023-04-09T12:56:17;6.90;;;5.90;;
11807;SDS011;5961;42.640;23.380;2023-04-09T12:58:44;7.23;;;5.63;;
11807;SDS011;5961;42.640;23.380;2023-04-09T13:01:11;7.10;;;6.13;;
11807;SDS011;5961;42.640;23.380;2023-04-09T13:03:39;7.63;;;6.67;;
11807;SDS011;5961;42.640;23.380;2023-04-09T13:06:06;7.37;;;6.43;;
11807;SDS011;5961;42.640;23.380;2023-04-09T13:08:33;5.60;;;5.10;;
11807;SDS011;5961;42.640;23.380;2023-04-09T13:11:00;6.93;;;5.63;;
11807;SDS011;5961;42.640;23.380;2023-04-09T13:13:28;6.73;;;5.20;;
11807;SDS011;5961;42.640;23.380;2023-04-09T13:15:55;6.33;;;5.00;;
11807;SDS011;5961;42.640;23.380;2023-04-09T13:18:22;6.20;;;5.60;;
11807;SDS011;5961;42.640;23.380;2023-04-09T13:20:50;5.37;;;4.87;;
11807;SDS011;5961;42.640;23.380;2023-04-09T13:23:17;7.30;;;5.80;;
11807;SDS011;5961;42.640;23.380;2023-04-09T13:25:43;7.13;;;5.60;;
11807;SDS011;5961;42.640;23.380;2023-04-09T13:28:10;7.10;;;5.87;;
11807;SDS011;5961;42.640;23.380;2023-04-09T13:30:37;6.73;;;5.57;;
11807;SDS011;5961;42.640;23.380;2023-04-09T13:33:03;6.30;;;5.70;;
11807;SDS011;5961;42.640;23.380;2023-04-09T13:35:30;8.00;;;6.07;;
11807;SDS011;5961;42.640;23.380;2023-04-09T13:37:58;9.50;;;6.13;;
11807;SDS011;5961;42.640;23.380;2023-04-09T13:40:25;7.97;;;6.67;;
11807;SDS011;5961;42.640;23.380;2023-04-09T13:42:52;8.47;;;7.10;;
11807;SDS011;5961;42.640;23.380;2023-04-09T13:45:18;9.83;;;7.90;;
11807;SDS011;5961;42.640;23.380;2023-04-09T13:47:47;28.63;;;20.77;;
11807;SDS011;5961;42.640;23.380;2023-04-09T13:50:15;8.93;;;6.87;;
11807;SDS011;5961;42.640;23.380;2023-04-09T13:52:41;8.23;;;6.97;;
11807;SDS011;5961;42.640;23.380;2023-04-09T13:55:10;9.13;;;7.13;;
11807;SDS011;5961;42.640;23.380;2023-04-09T13:57:40;10.07;;;8.37;;
11807;SDS011;5961;42.640;23.380;2023-04-09T14:00:07;6.93;;;6.23;;
11807;SDS011;5961;42.640;23.380;2023-04-09T14:02:35;7.77;;;6.47;;
11807;SDS011;5961;42.640;23.380;2023-04-09T14:05:01;9.03;;;7.00;;
11807;SDS011;5961;42.640;23.380;2023-04-09T14:07:28;8.97;;;7.30;;
11807;SDS011;5961;42.640;23.380;2023-04-09T14:09:56;6.60;;;5.80;;
11807;SDS011;5961;42.640;23.380;2023-04-09T14:12:24;8.43;;;6.77;;
11807;SDS011;5961;42.640;23.380;2023-04-09T14:14:51;7.13;;;6.43;;
11807;SDS011;5961;42.640;23.380;2023-04-09T14:17:17;8.33;;;6.77;;
11807;SDS011;5961;42.640;23.380;2023-04-09T14:19:44;6.57;;;5.80;;
11807;SDS011;5961;42.640;23.380;2023-04-09T14:22:11;7.23;;;6.30;;
11807;SDS011;5961;42.640;23.380;2023-04-09T14:24:37;7.60;;;6.80;;
11807;SDS011;5961;42.640;23.380;2023-04-09T14:27:04;8.33;;;6.50;;
11807;SDS011;5961;42.640;23.380;2023-04-09T14:29:33;7.40;;;6.60;;
11807;SDS011;5961;42.640;23.380;2023-04-09T14:32:00;8.50;;;7.17;;
11807;SDS011;5961;42.640;23.380;2023-04-09T14:34:28;7.20;;;6.10;;